Race Rocks, British Columbia

8:57 PM PST on February 11, 2016 (GMT -0800)
Metchosin | | Change Station
CLOSE
Current Station
Personal Weather Station
Location: Victoria, BC
Elevation: 25 ft
Nearby Weather Stations

Elev 25 ft 48.37 °N, 123.53 °W | Updated 11 minutes ago

Light Rain
Light Rain
47.8 °F
Feels Like 48 °F
N
2.7
Wind Variable Wind from WNW

Today
High -- | Low -- °F
--% Chance of Precip.
Yesterday
High -- | Low -- °F
Precip. -- in
Pressure 30.06 in
Visibility 8.0 miles
Clouds Overcast 700 ft
Windchill 48 °F
Dew Point 47 °F
Humidity 97%
Rainfall 0.00 in
Snow Depth Not available.
7:28 AM 5:29 PM
Waxing Crescent, 17% visible
METAR CYWH 120400Z 36006KT 8SM -RA OVC007 09/07 A3006 RMK SC8 SLP180
Pressure 30.06 in
Visibility 8.0 miles
Clouds Overcast 700 ft
Windchill 48 °F
Dew Point 47 °F
Humidity 97%
Rainfall 0.00 in
Snow Depth Not available.
7:28 AM 5:29 PM
Waxing Crescent, 17% visible
METAR CYWH 120400Z 36006KT 8SM -RA OVC007 09/07 A3006 RMK SC8 SLP180

10-Day Weather Forecast

Almanac

Astronomy

Feb. 11, 2016 Rise Set
Actual Time
Civil Twilight
Nautical Twilight
Astronomical Twilight
Moon
Length of Visible Light
Length of Day
Tomorrow will be .
, % of the Moon is Illuminated

Today's Extremes

Country Highs Country Lows

Community

WunderPhotos

Upload Photos

1,892,268 photos uploaded!

WunderBlog® & News

Nearby

Air Quality

  Air Quality AQ Index Pollutant
Not available.

Snow Depth

Station Depth Elevation

Earthquake Activity

City Distance Mag. Time & Date
Minimum magnitude displayed is 2.5.

Coastal Water Temperatures

Place Temperature

Stations

Nearby Weather Stations

Station Location Temp. Windchill Dew Point Humidity Wind Precip. Elev Updated Type
                   

Watches & Warnings

There are currently no watches in effect.